Time;durP1;ratioP1;P1;durP2;ratioP2;P2;SDS_P1;SDS_P2;PMS_P1;PMS_P2;Temp;Humidity;BMP_temperature;BMP_pressure;BME280_temperature;BME280_humidity;BME280_pressure;Samples;Min_cycle;Max_cycle;Signal;HPM_P1;HPM_P2
2020/12/08 00:01:53;;;;;;;17.62;7.85;;;;;;;-7.24;67.54;100774.52;1610896;89;21191;-65
2020/12/08 00:04:20;;;;;;;18.15;8.33;;;;;;;-7.26;67.72;100783.06;1637193;87;21611;-65
2020/12/08 00:06:48;;;;;;;21.02;8.00;;;;;;;-7.29;67.82;100782.48;1679284;84;21168;-65
2020/12/08 00:09:15;;;;;;;19.70;8.30;;;;;;;-7.23;67.75;100775.36;1637288;87;21345;-65
2020/12/08 00:11:46;;;;;;;20.27;9.35;;;;;;;-7.21;67.76;100778.70;1634948;86;21621;-64
2020/12/08 00:14:14;;;;;;;19.55;7.70;;;;;;;-7.16;67.59;100776.52;1622462;87;21854;-65
2020/12/08 00:16:41;;;;;;;17.32;7.87;;;;;;;-7.15;67.62;100770.22;1630115;87;21234;-65
2020/12/08 00:19:10;;;;;;;18.87;7.78;;;;;;;-7.17;67.25;100777.47;1661254;85;21176;-65
2020/12/08 00:21:45;;;;;;;15.00;7.58;;;;;;;-7.26;67.52;100770.34;1685875;84;21336;-64
2020/12/08 00:24:13;;;;;;;14.68;6.75;;;;;;;-7.29;67.67;100766.61;1688159;85;21167;-64
2020/12/08 00:26:41;;;;;;;20.30;8.45;;;;;;;-7.30;67.79;100776.86;1649759;85;21304;-64
2020/12/08 00:29:09;;;;;;;16.50;8.00;;;;;;;-7.25;67.87;100767.55;1680205;85;21132;-65
2020/12/08 00:31:36;;;;;;;16.45;7.92;;;;;;;-7.25;67.98;100764.06;1622402;88;21320;-65
2020/12/08 00:34:05;;;;;;;16.40;7.72;;;;;;;-7.22;67.78;100760.66;1646031;87;21196;-64
2020/12/08 00:36:33;;;;;;;17.40;7.92;;;;;;;-7.27;68.21;100762.05;1647627;87;21185;-64
2020/12/08 00:39:05;;;;;;;18.92;8.53;;;;;;;-7.30;68.45;100757.03;1622146;88;21321;-65
2020/12/08 00:41:33;;;;;;;16.97;7.75;;;;;;;-7.33;68.60;100747.52;1667962;85;21531;-64
2020/12/08 00:44:00;;;;;;;13.45;6.67;;;;;;;-7.30;68.64;100745.97;1649626;87;21321;-64
2020/12/08 00:46:28;;;;;;;20.35;7.53;;;;;;;-7.29;68.83;100741.48;1692342;83;21839;-64
2020/12/08 00:48:55;;;;;;;17.35;8.08;;;;;;;-7.31;68.94;100719.14;1648927;87;21820;-64
2020/12/08 00:51:23;;;;;;;15.98;8.43;;;;;;;-7.29;68.81;100736.19;1642513;87;21305;-65
2020/12/08 00:53:50;;;;;;;18.95;8.33;;;;;;;-7.27;68.86;100719.23;1643214;87;21317;-65
2020/12/08 00:56:18;;;;;;;17.17;7.95;;;;;;;-7.32;68.94;100724.55;1645960;87;21572;-64
2020/12/08 00:58:47;;;;;;;20.57;8.30;;;;;;;-7.40;68.95;100724.41;1649481;86;21360;-64
2020/12/08 01:01:15;;;;;;;16.27;7.67;;;;;;;-7.42;69.26;100723.69;1683967;85;21629;-64
2020/12/08 01:03:43;;;;;;;15.88;7.75;;;;;;;-7.45;69.16;100723.48;1647453;87;21752;-64
2020/12/08 01:06:11;;;;;;;15.90;7.65;;;;;;;-7.46;69.18;100715.18;1668205;85;21309;-64
2020/12/08 01:08:40;;;;;;;17.30;7.70;;;;;;;-7.44;69.44;100728.28;1664959;85;21148;-65
2020/12/08 01:11:08;;;;;;;18.92;8.03;;;;;;;-7.46;69.38;100726.23;1636428;87;21336;-65
2020/12/08 01:13:38;;;;;;;15.20;7.60;;;;;;;-7.50;69.36;100726.14;1626932;86;21316;-65
2020/12/08 01:16:07;;;;;;;16.23;8.90;;;;;;;-7.52;69.25;100728.09;1633467;87;21783;-65
2020/12/08 01:18:35;;;;;;;18.32;8.53;;;;;;;-7.48;69.28;100734.80;1648990;87;21602;-64
2020/12/08 01:21:03;;;;;;;19.40;8.28;;;;;;;-7.57;69.45;100734.62;1627866;86;21198;-63
2020/12/08 01:23:30;;;;;;;17.77;8.38;;;;;;;-7.59;69.53;100737.05;1671328;85;21273;-63
2020/12/08 01:26:00;;;;;;;18.12;7.97;;;;;;;-7.61;69.61;100747.75;1674543;85;21718;-61
2020/12/08 01:28:28;;;;;;;18.07;8.28;;;;;;;-7.54;69.59;100757.82;1619413;88;21333;-66
2020/12/08 01:30:57;;;;;;;16.67;7.85;;;;;;;-7.58;69.52;100759.89;1673389;83;21306;-63
2020/12/08 01:33:26;;;;;;;19.82;8.93;;;;;;;-7.59;69.66;100757.72;1645478;87;21623;-63
2020/12/08 01:35:54;;;;;;;18.30;7.78;;;;;;;-7.59;69.77;100755.08;1639665;87;21162;-63
2020/12/08 01:38:22;;;;;;;17.48;8.53;;;;;;;-7.61;69.78;100752.19;1682656;85;21350;-65
2020/12/08 01:40:56;;;;;;;18.02;9.95;;;;;;;-7.65;70.04;100747.65;1686851;85;21735;-64
2020/12/08 01:43:25;;;;;;;17.05;8.80;;;;;;;-7.61;70.05;100738.97;1685172;85;21156;-63
2020/12/08 01:45:53;;;;;;;16.60;8.20;;;;;;;-7.64;70.15;100761.23;1688849;84;21730;-63
2020/12/08 01:48:21;;;;;;;17.10;8.58;;;;;;;-7.63;70.17;100759.43;1616405;87;21324;-64
2020/12/08 01:50:50;;;;;;;22.15;9.35;;;;;;;-7.70;70.35;100764.41;1673108;85;21334;-63
2020/12/08 01:53:18;;;;;;;17.95;7.92;;;;;;;-7.66;70.31;100764.50;1660131;85;21309;-64
2020/12/08 01:55:48;;;;;;;19.73;9.00;;;;;;;-7.66;70.17;100768.47;1688479;85;21207;-62
2020/12/08 01:58:20;;;;;;;16.67;8.75;;;;;;;-7.72;70.25;100772.94;1686836;85;21282;-64
2020/12/08 02:00:48;;;;;;;18.40;8.60;;;;;;;-7.80;70.57;100770.60;1675990;84;21715;-64
2020/12/08 02:03:16;;;;;;;18.92;7.72;;;;;;;-7.77;70.53;100779.59;1671786;85;21853;-64
2020/12/08 02:05:44;;;;;;;16.37;8.70;;;;;;;-7.80;70.61;100775.89;1686706;85;21326;-64
2020/12/08 02:08:12;;;;;;;20.37;8.98;;;;;;;-7.75;70.58;100782.93;1661149;85;21350;-64
2020/12/08 02:10:41;;;;;;;17.32;8.55;;;;;;;-7.81;70.59;100760.51;1668191;85;21200;-64
2020/12/08 02:13:10;;;;;;;18.48;9.33;;;;;;;-8.01;70.74;100739.38;1618950;88;21188;-64
2020/12/08 02:15:40;;;;;;;14.58;7.95;;;;;;;-7.83;70.81;100774.83;1646340;86;21206;-64
2020/12/08 02:18:07;;;;;;;16.75;8.58;;;;;;;-7.85;70.84;100758.24;1661316;85;21337;-64
2020/12/08 02:20:35;;;;;;;20.25;9.68;;;;;;;-7.92;71.10;100764.53;1639165;87;21147;-64
2020/12/08 02:23:03;;;;;;;17.05;8.15;;;;;;;-7.91;71.12;100761.41;1645310;86;21234;-64
2020/12/08 02:25:32;;;;;;;17.70;8.55;;;;;;;-7.89;71.08;100753.70;1664957;85;21132;-64
2020/12/08 02:28:01;;;;;;;17.27;8.35;;;;;;;-7.86;71.01;100749.47;1688490;85;21340;-64
2020/12/08 02:30:28;;;;;;;18.60;9.05;;;;;;;-7.79;70.85;100749.30;1645571;87;21340;-64
2020/12/08 02:32:55;;;;;;;15.80;8.00;;;;;;;-7.83;71.11;100752.36;1644126;86;21359;-63
2020/12/08 02:35:23;;;;;;;15.30;7.70;;;;;;;-7.84;71.22;100750.20;1638636;87;21167;-65
2020/12/08 02:37:51;;;;;;;18.55;8.08;;;;;;;-7.84;71.03;100740.11;1641871;86;21197;-64
2020/12/08 02:40:19;;;;;;;19.52;8.98;;;;;;;-7.85;71.17;100745.87;1643566;87;21622;-64
2020/12/08 02:42:48;;;;;;;20.02;8.93;;;;;;;-7.82;71.20;100742.96;1644532;86;21408;-63
2020/12/08 02:45:16;;;;;;;20.48;9.20;;;;;;;-7.79;71.25;100743.17;1686876;85;21159;-64
2020/12/08 02:47:46;;;;;;;16.40;8.48;;;;;;;-7.77;71.22;100755.80;1686508;84;21282;-64
2020/12/08 02:50:14;;;;;;;21.40;9.25;;;;;;;-7.74;71.20;100747.61;1686125;85;21607;-64
2020/12/08 02:52:42;;;;;;;18.07;9.38;;;;;;;-7.72;71.20;100746.50;1661822;85;21898;-64
2020/12/08 02:55:10;;;;;;;21.95;8.83;;;;;;;-7.71;71.12;100742.89;1642706;87;21158;-64
2020/12/08 02:57:39;;;;;;;15.18;7.87;;;;;;;-7.70;71.01;100736.64;1667506;85;21345;-63
2020/12/08 03:00:07;;;;;;;22.02;9.53;;;;;;;-7.70;71.16;100745.90;1686792;84;21184;-64
2020/12/08 03:02:35;;;;;;;22.07;9.48;;;;;;;-7.66;71.17;100749.96;1668461;85;21848;-64
2020/12/08 03:05:03;;;;;;;23.25;10.65;;;;;;;-7.66;71.23;100738.06;1619232;88;21207;-64
2020/12/08 03:07:30;;;;;;;18.02;9.00;;;;;;;-7.68;71.24;100739.14;1606522;88;21313;-64
2020/12/08 03:10:01;;;;;;;22.60;9.85;;;;;;;-7.70;71.49;100734.00;1686983;85;21305;-64
2020/12/08 03:12:29;;;;;;;20.72;8.73;;;;;;;-7.74;71.58;100736.55;1661495;85;21670;-64
2020/12/08 03:14:57;;;;;;;23.50;11.63;;;;;;;-7.73;71.52;100746.16;1633725;87;21741;-62
2020/12/08 03:17:26;;;;;;;24.43;11.03;;;;;;;-7.67;71.54;100746.95;1641525;87;21329;-64
2020/12/08 03:19:54;;;;;;;19.05;9.58;;;;;;;-7.69;71.59;100747.58;1687537;85;21167;-64
2020/12/08 03:22:22;;;;;;;25.05;10.93;;;;;;;-7.65;71.51;100744.20;1682968;84;21349;-63
2020/12/08 03:24:51;;;;;;;19.40;9.00;;;;;;;-7.58;71.41;100747.48;1674739;85;21307;-64
2020/12/08 03:27:20;;;;;;;18.62;7.85;;;;;;;-7.64;71.53;100746.69;1605554;89;21336;-64
2020/12/08 03:29:49;;;;;;;19.32;8.90;;;;;;;-7.60;71.50;100743.30;1637585;87;21297;-64
2020/12/08 03:32:18;;;;;;;22.52;9.08;;;;;;;-7.63;71.87;100743.09;1676998;84;21345;-64
2020/12/08 03:34:45;;;;;;;20.30;10.10;;;;;;;-7.60;71.85;100736.69;1663495;85;21161;-65
2020/12/08 03:37:13;;;;;;;35.43;14.10;;;;;;;-7.68;72.05;100732.53;1653761;85;21168;-64
2020/12/08 03:39:41;;;;;;;29.20;10.68;;;;;;;-7.62;71.97;100724.94;1678607;85;21596;-64
2020/12/08 03:42:09;;;;;;;19.10;9.08;;;;;;;-7.58;71.90;100726.32;1679297;85;21200;-64
2020/12/08 03:44:38;;;;;;;18.37;8.90;;;;;;;-7.50;71.85;100722.17;1676396;85;21604;-64
2020/12/08 03:47:08;;;;;;;21.15;10.28;;;;;;;-7.50;71.75;100721.70;1658994;85;21167;-63
2020/12/08 03:49:35;;;;;;;21.45;9.58;;;;;;;-7.48;71.66;100726.88;1674296;85;21168;-64
2020/12/08 03:52:04;;;;;;;18.45;8.70;;;;;;;-7.53;71.85;100725.09;1679583;85;21665;-64
2020/12/08 03:54:32;;;;;;;30.82;12.43;;;;;;;-7.52;71.91;100719.69;1671487;85;21164;-64
2020/12/08 03:57:01;;;;;;;29.48;12.70;;;;;;;-7.51;71.98;100712.59;1652118;85;21571;-64
2020/12/08 03:59:29;;;;;;;23.42;10.28;;;;;;;-7.53;72.03;100706.58;1676724;85;21306;-63
2020/12/08 04:01:59;;;;;;;23.20;10.90;;;;;;;-7.51;71.89;100717.41;1678899;85;21148;-63
2020/12/08 04:04:27;;;;;;;24.10;10.15;;;;;;;-7.49;71.90;100707.52;1659873;85;21362;-64
2020/12/08 04:06:54;;;;;;;19.75;9.40;;;;;;;-7.52;72.00;100713.55;1679371;84;21584;-63
2020/12/08 04:09:22;;;;;;;19.55;10.20;;;;;;;-7.50;72.13;100710.28;1630219;87;21875;-63
2020/12/08 04:11:49;;;;;;;19.10;9.58;;;;;;;-7.49;72.03;100698.26;1679353;85;21174;-64
2020/12/08 04:14:17;;;;;;;34.70;18.25;;;;;;;-7.46;72.12;100708.56;1660921;85;21302;-64
2020/12/08 04:16:47;;;;;;;27.00;12.82;;;;;;;-7.44;72.09;100713.25;1657449;85;21342;-63
2020/12/08 04:19:16;;;;;;;25.05;12.90;;;;;;;-7.48;72.22;100709.68;1678874;85;21671;-64
2020/12/08 04:21:44;;;;;;;19.75;9.78;;;;;;;-7.50;72.26;100708.95;1677381;84;21153;-63
2020/12/08 04:24:20;;;;;;;21.57;10.75;;;;;;;-7.44;72.48;100702.67;1799498;77;23542;-61
2020/12/08 04:26:48;;;;;;;23.27;9.58;;;;;;;-7.40;72.50;100707.22;1694614;83;21180;-62
2020/12/08 04:29:18;;;;;;;23.55;11.55;;;;;;;-7.39;72.58;100702.25;1691982;83;21186;-62
2020/12/08 04:31:47;;;;;;;24.45;11.05;;;;;;;-7.37;72.62;100704.30;1713156;83;21152;-62
2020/12/08 04:34:14;;;;;;;26.55;11.78;;;;;;;-7.42;72.96;100706.49;1674543;84;21263;-62
2020/12/08 04:36:42;;;;;;;24.10;10.68;;;;;;;-7.42;73.14;100699.40;1673496;84;21193;-62
2020/12/08 04:39:09;;;;;;;23.45;9.28;;;;;;;-7.39;73.15;100702.25;1680720;84;21601;-62
2020/12/08 04:41:36;;;;;;;22.58;10.15;;;;;;;-7.45;73.41;100704.13;1710039;83;21153;-61
2020/12/08 04:44:05;;;;;;;32.63;14.03;;;;;;;-7.46;73.58;100703.76;1655178;83;21177;-61
2020/12/08 04:46:34;;;;;;;30.12;14.07;;;;;;;-7.43;73.51;100705.66;1671127;84;21647;-62
2020/12/08 04:49:02;;;;;;;19.67;9.70;;;;;;;-7.47;73.54;100696.81;1690565;83;21580;-61
2020/12/08 04:51:29;;;;;;;22.98;11.20;;;;;;;-7.45;73.37;100698.83;1711324;83;21148;-61
2020/12/08 04:53:57;;;;;;;23.57;11.73;;;;;;;-7.47;73.44;100696.30;1709755;83;21201;-61
2020/12/08 04:56:25;;;;;;;20.40;10.05;;;;;;;-7.48;73.62;100697.78;1702523;83;21161;-62
2020/12/08 04:58:52;;;;;;;25.80;10.72;;;;;;;-7.45;73.66;100697.51;1653762;84;21264;-62
2020/12/08 05:01:25;;;;;;;22.07;10.13;;;;;;;-7.50;73.73;100690.44;1686086;83;21171;-62
2020/12/08 05:03:58;;;;;;;22.58;10.23;;;;;;;-7.48;73.87;100688.52;1749672;81;21365;-61
2020/12/08 05:06:28;;;;;;;30.72;13.72;;;;;;;-7.47;73.89;100687.56;1727227;83;21179;-62
2020/12/08 05:09:08;;;;;;;20.68;9.38;;;;;;;-7.49;74.11;100690.33;1692597;83;21164;-61
2020/12/08 05:11:36;;;;;;;28.52;11.65;;;;;;;-7.46;74.05;100684.77;1723484;81;21187;-61
2020/12/08 05:14:06;;;;;;;24.57;11.22;;;;;;;-7.46;74.14;100686.56;1721708;83;21587;-62
2020/12/08 05:16:34;;;;;;;24.18;10.85;;;;;;;-7.50;74.34;100692.61;1721660;83;21155;-61
2020/12/08 05:19:09;;;;;;;20.32;10.23;;;;;;;-7.49;74.16;100691.64;1693309;83;21195;-61
2020/12/08 05:21:51;;;;;;;20.00;9.95;;;;;;;-7.52;74.33;100691.08;1723687;81;21325;-61
2020/12/08 05:24:29;;;;;;;22.55;9.80;;;;;;;-7.47;74.19;100692.34;1707714;82;21685;-61
2020/12/08 05:27:00;;;;;;;24.55;9.35;;;;;;;-7.47;74.13;100704.23;1704250;84;21165;-61
2020/12/08 05:29:28;;;;;;;26.17;13.22;;;;;;;-7.52;74.07;100690.59;1677059;84;21191;-61
2020/12/08 05:31:56;;;;;;;33.85;17.35;;;;;;;-7.57;74.29;100693.63;1696251;83;21683;-61
2020/12/08 05:34:24;;;;;;;29.48;13.25;;;;;;;-7.57;74.45;100696.75;1649945;85;21330;-61
2020/12/08 05:36:53;;;;;;;29.00;12.45;;;;;;;-7.52;74.46;100690.59;1669882;84;21167;-62
2020/12/08 05:39:22;;;;;;;26.75;13.95;;;;;;;-7.51;74.39;100697.57;1677521;84;21737;-61
2020/12/08 05:41:50;;;;;;;19.45;10.05;;;;;;;-7.50;74.41;100693.09;1676495;83;21373;-61
2020/12/08 05:44:25;;;;;;;20.00;9.98;;;;;;;-7.51;74.51;100700.22;1704657;82;21165;-61
2020/12/08 05:46:53;;;;;;;21.05;10.80;;;;;;;-7.53;74.60;100701.30;1704509;84;21168;-61
2020/12/08 05:49:21;;;;;;;21.75;10.65;;;;;;;-7.59;74.69;100699.55;1680048;84;21266;-61
2020/12/08 05:51:50;;;;;;;22.20;10.38;;;;;;;-7.66;74.87;100696.23;1677000;84;21229;-62
2020/12/08 05:54:20;;;;;;;21.80;9.30;;;;;;;-7.72;75.01;100700.23;1663106;82;21157;-62
2020/12/08 05:56:50;;;;;;;27.20;11.45;;;;;;;-7.74;75.17;100700.86;1677163;84;21219;-61
2020/12/08 05:59:27;;;;;;;26.05;10.93;;;;;;;-7.74;75.24;100702.18;1682269;82;21224;-61
2020/12/08 06:01:56;;;;;;;22.37;10.90;;;;;;;-7.73;75.33;100711.80;1704227;84;21206;-62
2020/12/08 06:04:24;;;;;;;23.47;10.43;;;;;;;-7.75;75.41;100699.66;1682574;82;21319;-61
2020/12/08 06:06:55;;;;;;;19.60;9.05;;;;;;;-7.75;75.29;100702.30;1704440;84;21188;-61
2020/12/08 06:09:28;;;;;;;23.47;10.68;;;;;;;-7.74;75.38;100711.91;1649809;82;21794;-62
2020/12/08 06:11:55;;;;;;;23.35;11.20;;;;;;;-7.79;75.41;100715.42;1704266;84;21315;-61
2020/12/08 06:14:36;;;;;;;21.85;9.65;;;;;;;-7.80;75.57;100715.94;1704385;84;21347;-61
2020/12/08 06:17:07;;;;;;;25.43;9.28;;;;;;;-7.79;75.57;100716.74;1686470;84;21335;-61
2020/12/08 06:19:35;;;;;;;18.02;9.63;;;;;;;-7.79;75.55;100730.80;1704367;82;21208;-60
2020/12/08 06:22:12;;;;;;;20.45;9.83;;;;;;;-7.82;75.40;100723.62;1704337;84;21341;-61
2020/12/08 06:24:53;;;;;;;21.80;9.80;;;;;;;-7.88;75.71;100719.70;1690506;84;21333;-61
2020/12/08 06:27:22;;;;;;;22.00;9.78;;;;;;;-7.85;75.77;100722.56;1705928;84;21619;-61
2020/12/08 06:29:56;;;;;;;21.62;10.38;;;;;;;-7.86;75.74;100717.75;1686650;83;21306;-61
2020/12/08 06:32:28;;;;;;;23.42;10.53;;;;;;;-7.86;75.52;100713.79;1684812;85;21345;-61
2020/12/08 06:35:09;;;;;;;29.67;10.80;;;;;;;-7.84;75.62;100711.87;1717578;83;21291;-61
2020/12/08 06:37:39;;;;;;;22.67;10.20;;;;;;;-7.90;75.92;100704.44;1724010;80;21157;-61
2020/12/08 06:40:12;;;;;;;23.22;10.18;;;;;;;-7.84;76.00;100713.19;1744660;82;21333;-61
2020/12/08 06:42:39;;;;;;;22.62;9.88;;;;;;;-7.84;75.80;100710.55;1736759;82;21330;-61
2020/12/08 06:45:20;;;;;;;26.33;11.12;;;;;;;-7.81;75.75;100704.16;1704326;82;21303;-61
2020/12/08 06:47:48;;;;;;;23.12;10.35;;;;;;;-7.86;75.79;100717.75;1718620;80;21599;-61
2020/12/08 06:50:28;;;;;;;21.77;10.23;;;;;;;-7.87;75.82;100696.28;1719663;80;21186;-61
2020/12/08 06:53:01;;;;;;;22.70;10.32;;;;;;;-7.90;76.17;100711.56;1745948;82;21787;-62
2020/12/08 06:55:30;;;;;;;23.70;10.85;;;;;;;-7.83;75.86;100714.03;1747094;82;21307;-61
2020/12/08 06:58:04;;;;;;;23.47;9.50;;;;;;;-7.89;75.85;100706.60;1746366;80;21379;-62
2020/12/08 07:00:32;;;;;;;22.73;9.93;;;;;;;-7.94;75.97;100703.05;1741922;81;21145;-62
2020/12/08 07:03:02;;;;;;;22.62;9.93;;;;;;;-7.91;76.01;100708.08;1741148;82;21173;-62
2020/12/08 07:05:31;;;;;;;22.73;9.88;;;;;;;-7.90;75.80;100713.69;1716623;80;21129;-63
2020/12/08 07:08:04;;;;;;;19.52;10.05;;;;;;;-7.98;76.11;100718.81;1718725;80;21316;-61
2020/12/08 07:10:39;;;;;;;22.62;9.85;;;;;;;-7.93;76.10;100719.24;1729953;80;21295;-64
2020/12/08 07:13:16;;;;;;;24.37;9.53;;;;;;;-7.95;76.03;100717.23;1746372;82;21194;-64
2020/12/08 07:15:44;;;;;;;25.82;10.32;;;;;;;-7.91;76.02;100723.09;1703544;82;21189;-64
2020/12/08 07:18:12;;;;;;;22.65;10.25;;;;;;;-7.94;75.85;100728.16;1744017;81;21203;-64
2020/12/08 07:20:41;;;;;;;22.67;10.95;;;;;;;-7.90;75.91;100727.42;1747219;82;21169;-64
2020/12/08 07:23:10;;;;;;;21.40;10.03;;;;;;;-7.91;75.95;100720.45;1748202;82;21382;-64
2020/12/08 07:25:37;;;;;;;24.52;11.35;;;;;;;-7.92;75.91;100718.77;1755086;81;21181;-64
2020/12/08 07:28:06;;;;;;;23.80;10.93;;;;;;;-7.86;76.06;100724.36;1756740;80;21732;-64
2020/12/08 07:30:34;;;;;;;25.45;11.57;;;;;;;-7.77;76.00;100726.24;1789125;80;21166;-64
2020/12/08 07:33:12;;;;;;;23.95;11.28;;;;;;;-7.63;75.91;100719.77;1789045;80;21162;-64
2020/12/08 07:35:44;;;;;;;23.00;11.43;;;;;;;-7.61;75.62;100721.78;1761173;80;21127;-64
2020/12/08 07:38:11;;;;;;;26.37;13.25;;;;;;;-7.61;75.09;100723.95;1766025;80;21384;-64
2020/12/08 07:40:40;;;;;;;35.70;20.25;;;;;;;-7.58;74.71;100726.83;1751744;80;21181;-64
2020/12/08 07:43:08;;;;;;;29.55;14.40;;;;;;;-7.53;74.62;100725.94;1750882;80;21165;-65
2020/12/08 07:45:45;;;;;;;45.65;26.25;;;;;;;-7.58;74.40;100723.67;1751650;80;21279;-65
2020/12/08 07:48:18;;;;;;;33.95;19.95;;;;;;;-7.49;74.75;100728.67;1755348;81;21632;-64
2020/12/08 07:50:45;;;;;;;24.40;13.40;;;;;;;-7.49;74.75;100728.67;1747644;82;21559;-65
2020/12/08 07:53:15;;;;;;;26.23;14.33;;;;;;;-7.43;74.29;100727.29;1746865;82;21329;-64
2020/12/08 07:55:45;;;;;;;22.02;10.70;;;;;;;-7.40;74.13;100725.22;1747742;82;21336;-65
2020/12/08 07:58:12;;;;;;;24.37;11.35;;;;;;;-7.32;73.45;100717.94;1785231;80;21299;-65
2020/12/08 08:00:40;;;;;;;23.07;11.15;;;;;;;-7.36;72.92;100717.85;1772003;80;21148;-64
2020/12/08 08:03:08;;;;;;;23.42;11.60;;;;;;;-7.32;73.06;100716.62;1785905;80;21404;-65
2020/12/08 08:05:36;;;;;;;25.35;10.82;;;;;;;-7.27;73.42;100721.87;1766463;80;21414;-64
2020/12/08 08:08:04;;;;;;;20.85;10.40;;;;;;;-7.27;73.01;100721.87;1754992;80;21202;-62
2020/12/08 08:10:32;;;;;;;24.40;10.00;;;;;;;-7.28;72.46;100714.91;1751631;82;21113;-62
2020/12/08 08:13:01;;;;;;;22.73;10.72;;;;;;;-7.24;72.12;100722.93;1755040;82;21335;-64
2020/12/08 08:15:30;;;;;;;28.35;12.40;;;;;;;-7.22;71.95;100714.36;1751812;80;21723;-63
2020/12/08 08:17:58;;;;;;;22.20;10.85;;;;;;;-7.21;71.85;100713.40;1749343;80;21199;-63
2020/12/08 08:20:26;;;;;;;24.72;11.30;;;;;;;-7.15;71.24;100715.98;1729874;80;21291;-63
2020/12/08 08:22:56;;;;;;;25.62;11.03;;;;;;;-7.14;70.70;100718.50;1719284;82;21202;-63
2020/12/08 08:25:24;;;;;;;21.85;11.05;;;;;;;-7.01;70.64;100718.24;1756889;80;21664;-63
2020/12/08 08:27:53;;;;;;;20.55;10.63;;;;;;;-6.95;69.79;100716.88;1754920;82;21178;-64
2020/12/08 08:30:22;;;;;;;27.00;12.40;;;;;;;-6.89;69.63;100722.47;1791198;80;21164;-64
2020/12/08 08:32:50;;;;;;;23.02;10.60;;;;;;;-6.83;69.48;100711.80;1791471;80;21173;-63
2020/12/08 08:35:20;;;;;;;24.07;11.15;;;;;;;-6.77;68.60;100705.50;1769171;80;21141;-63
2020/12/08 08:37:48;;;;;;;26.37;14.10;;;;;;;-6.62;68.06;100704.58;1763905;80;21393;-64
2020/12/08 08:40:16;;;;;;;23.55;12.35;;;;;;;-6.49;68.11;100699.02;1760291;81;21198;-63
2020/12/08 08:42:44;;;;;;;21.82;11.55;;;;;;;-6.35;67.88;100699.45;1760076;81;21535;-62
2020/12/08 08:45:14;;;;;;;26.02;13.15;;;;;;;-6.24;67.03;100690.52;1761252;80;21165;-63
2020/12/08 08:47:42;;;;;;;22.40;10.72;;;;;;;-6.12;67.03;100690.69;1755073;80;21183;-64
2020/12/08 08:50:10;;;;;;;27.10;11.83;;;;;;;-6.16;65.81;100686.64;1747038;80;21708;-64
2020/12/08 08:52:38;;;;;;;24.23;11.85;;;;;;;-6.23;66.27;100687.70;1763580;80;21307;-64
2020/12/08 08:57:44;;;;;;;24.95;14.83;;;;;;;-6.21;66.61;100692.88;1783831;79;28597;-63
2020/12/08 09:00:12;;;;;;;23.52;12.25;;;;;;;-6.08;66.54;100702.69;1719906;83;21144;-64
2020/12/08 09:02:40;;;;;;;26.37;12.45;;;;;;;-5.98;65.96;100698.20;1719978;83;21605;-63
2020/12/08 09:05:08;;;;;;;24.70;13.50;;;;;;;-6.07;66.04;100685.81;1692589;85;21298;-63
2020/12/08 09:07:37;;;;;;;21.73;11.83;;;;;;;-6.18;66.39;100687.29;1675829;85;21323;-63
2020/12/08 09:10:05;;;;;;;23.35;12.70;;;;;;;-6.23;66.84;100693.48;1655128;85;21156;-64
2020/12/08 09:12:33;;;;;;;24.92;12.55;;;;;;;-6.32;67.02;100689.05;1680120;85;21129;-64
2020/12/08 09:15:03;;;;;;;24.90;11.03;;;;;;;-6.45;67.46;100699.10;1664808;86;21149;-64
2020/12/08 09:17:30;;;;;;;25.30;12.25;;;;;;;-6.52;68.03;100700.15;1664676;86;21202;-64
2020/12/08 09:20:00;;;;;;;28.60;12.65;;;;;;;-6.47;68.17;100703.69;1673420;85;21270;-64
2020/12/08 09:22:28;;;;;;;21.20;10.20;;;;;;;-6.52;68.21;100702.80;1692574;85;21723;-64
2020/12/08 09:24:56;;;;;;;22.42;9.90;;;;;;;-6.57;68.22;100687.80;1640646;86;21334;-63
2020/12/08 09:27:24;;;;;;;47.50;25.50;;;;;;;-6.62;68.09;100690.02;1674965;85;21172;-63
2020/12/08 09:29:54;;;;;;;73.33;41.20;;;;;;;-6.66;68.84;100694.75;1694365;85;21322;-64
2020/12/08 09:32:22;;;;;;;25.60;14.30;;;;;;;-6.57;68.82;100695.74;1694332;85;21321;-62
2020/12/08 09:34:51;;;;;;;23.65;12.98;;;;;;;-6.49;68.45;100693.24;1692435;85;21157;-64
2020/12/08 09:37:19;;;;;;;24.07;11.53;;;;;;;-6.50;68.00;100696.02;1694238;85;21185;-63
2020/12/08 09:39:47;;;;;;;24.52;12.25;;;;;;;-6.51;68.24;100684.58;1694489;85;21168;-63
2020/12/08 09:42:15;;;;;;;22.58;10.48;;;;;;;-6.55;68.14;100682.70;1685302;85;21337;-63
2020/12/08 09:44:45;;;;;;;23.83;11.30;;;;;;;-6.52;68.05;100683.41;1685146;85;21174;-61
2020/12/08 09:47:15;;;;;;;23.85;10.72;;;;;;;-6.48;68.35;100688.27;1689674;83;21160;-61
2020/12/08 09:49:44;;;;;;;19.80;10.15;;;;;;;-6.48;68.57;100686.95;1694261;85;21330;-60
2020/12/08 09:52:12;;;;;;;21.45;11.38;;;;;;;-6.39;68.45;100678.17;1686947;83;21321;-60
2020/12/08 09:54:40;;;;;;;22.80;10.30;;;;;;;-6.35;68.56;100678.25;1664931;86;21318;-61
2020/12/08 09:57:08;;;;;;;20.62;9.93;;;;;;;-6.32;68.28;100683.75;1683048;85;21371;-61
2020/12/08 09:59:36;;;;;;;23.95;11.22;;;;;;;-6.29;68.13;100682.14;1742897;82;21296;-60
2020/12/08 10:02:04;;;;;;;22.98;10.78;;;;;;;-6.24;68.52;100689.19;1724178;82;21345;-60
2020/12/08 10:04:32;;;;;;;26.90;12.07;;;;;;;-6.18;68.66;100669.58;1724967;82;21302;-60
2020/12/08 10:07:00;;;;;;;22.85;10.65;;;;;;;-6.12;69.23;100676.11;1742685;82;21137;-60
2020/12/08 10:09:28;;;;;;;25.10;10.75;;;;;;;-6.12;69.13;100686.23;1723786;82;21283;-61
2020/12/08 10:11:56;;;;;;;22.77;11.65;;;;;;;-6.15;69.18;100675.91;1742403;82;21299;-60
2020/12/08 10:15:54;;;;;;;21.93;10.93;;;;;;;-6.01;69.56;100678.61;1779605;79;23597;-61
2020/12/08 10:18:23;;;;;;;22.48;11.28;;;;;;;-6.09;70.09;100674.50;1728743;82;21149;-60
2020/12/08 10:20:53;;;;;;;21.73;10.45;;;;;;;-6.05;69.82;100674.56;1669311;83;21322;-60
2020/12/08 10:23:22;;;;;;;28.87;11.75;;;;;;;-6.09;69.45;100670.03;1722510;82;21178;-60
2020/12/08 10:25:50;;;;;;;26.07;11.70;;;;;;;-6.04;69.58;100673.59;1719354;83;21177;-61
2020/12/08 10:28:18;;;;;;;20.23;9.70;;;;;;;-6.13;69.57;100645.30;1665989;85;21334;-61
2020/12/08 10:30:48;;;;;;;22.95;10.25;;;;;;;-6.02;69.49;100670.81;1649555;87;21354;-60
2020/12/08 10:33:16;;;;;;;21.05;10.80;;;;;;;-6.05;69.41;100668.78;1658563;85;21340;-61
2020/12/08 10:35:44;;;;;;;25.05;11.22;;;;;;;-6.07;69.76;100656.66;1656578;85;21572;-60
2020/12/08 10:38:14;;;;;;;22.00;11.05;;;;;;;-6.07;69.60;100664.12;1656524;85;21187;-60
2020/12/08 10:40:42;;;;;;;19.98;8.85;;;;;;;-6.09;69.39;100659.91;1683951;85;21662;-60
2020/12/08 10:43:10;;;;;;;21.12;10.53;;;;;;;-6.05;68.91;100669.26;1683589;85;21213;-60
2020/12/08 10:45:40;;;;;;;21.97;11.10;;;;;;;-6.20;69.23;100667.54;1663376;85;21190;-61
2020/12/08 10:48:08;;;;;;;21.65;10.40;;;;;;;-6.18;70.04;100660.30;1666465;85;21249;-60
2020/12/08 10:50:36;;;;;;;23.83;12.20;;;;;;;-6.13;70.05;100656.72;1683787;85;21206;-61
2020/12/08 10:53:06;;;;;;;20.37;10.68;;;;;;;-6.03;70.25;100659.37;1683866;84;21397;-61
2020/12/08 10:55:34;;;;;;;26.70;13.62;;;;;;;-5.92;69.92;100654.39;1683895;84;21182;-60
2020/12/08 10:58:03;;;;;;;24.80;10.82;;;;;;;-5.92;69.22;100651.73;1656700;85;21694;-61
2020/12/08 11:00:31;;;;;;;36.80;20.27;;;;;;;-5.90;68.88;100653.73;1683695;85;21226;-61
2020/12/08 11:03:01;;;;;;;29.40;14.00;;;;;;;-5.95;68.89;100657.33;1683746;85;21190;-60
2020/12/08 11:05:30;;;;;;;25.00;13.55;;;;;;;-5.98;69.09;100657.59;1683872;85;21210;-60
2020/12/08 11:07:58;;;;;;;24.95;11.25;;;;;;;-6.05;69.25;100662.63;1636269;86;21168;-60
2020/12/08 11:10:27;;;;;;;21.37;9.88;;;;;;;-6.07;69.15;100656.66;1683189;84;21153;-60
2020/12/08 11:12:55;;;;;;;24.67;12.30;;;;;;;-6.09;69.21;100665.22;1636788;86;21213;-60
2020/12/08 11:15:23;;;;;;;23.12;10.82;;;;;;;-6.13;69.37;100657.23;1646860;86;21664;-60
2020/12/08 11:17:51;;;;;;;23.92;11.93;;;;;;;-6.11;69.11;100649.96;1660721;85;21178;-60
2020/12/08 11:20:20;;;;;;;24.32;9.95;;;;;;;-6.10;69.27;100659.11;1680618;84;21166;-60
2020/12/08 11:22:48;;;;;;;24.43;10.65;;;;;;;-6.07;68.90;100649.55;1635548;88;21574;-61
2020/12/08 11:25:15;;;;;;;23.80;11.53;;;;;;;-6.10;68.67;100650.31;1679700;85;21205;-61